createdAt,value
2022-09-23T00:02:07.518Z,6.70
2022-09-23T00:07:10.558Z,6.50
2022-09-23T00:12:13.355Z,8.90
2022-09-23T00:17:16.261Z,11.40
2022-09-23T00:22:19.162Z,15.60
2022-09-23T00:27:22.066Z,14.40
2022-09-23T00:32:25.116Z,10.20
2022-09-23T00:37:28.948Z,8.20
2022-09-23T00:42:32.008Z,13.80
2022-09-23T00:47:54.982Z,7.60
2022-09-23T00:53:01.336Z,7.20
2022-09-23T00:58:08.106Z,9.00
2022-09-23T01:03:12.128Z,7.30
2022-09-23T01:08:15.960Z,7.50
2022-09-23T01:13:27.013Z,7.20
2022-09-23T01:18:57.430Z,10.60
2022-09-23T01:24:18.593Z,8.40
2022-09-23T01:30:03.445Z,11.40
2022-09-23T01:35:15.403Z,9.00
2022-09-23T01:40:42.868Z,10.30
2022-09-23T01:45:48.877Z,10.40
2022-09-23T01:50:57.758Z,10.90
2022-09-23T01:56:05.515Z,11.00
2022-09-23T02:01:10.215Z,10.50
2022-09-23T02:06:23.099Z,10.00
2022-09-23T02:11:26.991Z,11.00
2022-09-23T02:16:51.966Z,8.60
2022-09-23T02:22:09.245Z,8.70
2022-09-23T02:27:31.552Z,9.70
2022-09-23T02:33:07.221Z,9.30
2022-09-23T02:38:31.735Z,12.70
2022-09-23T02:43:45.389Z,12.60
2022-09-23T02:48:56.995Z,9.90
2022-09-23T02:54:00.187Z,11.50
2022-09-23T02:59:04.301Z,11.00
2022-09-23T03:04:21.688Z,11.40
2022-09-23T03:09:33.802Z,8.70
2022-09-23T03:14:51.040Z,10.40
2022-09-23T03:19:53.843Z,12.60
2022-09-23T03:25:03.813Z,13.60
2022-09-23T03:30:08.464Z,14.30
2022-09-23T03:40:41.999Z,11.90
2022-09-23T03:45:46.849Z,12.30
2022-09-23T03:50:49.873Z,14.90
2022-09-23T03:55:52.676Z,14.10
2022-09-23T04:00:55.704Z,13.10
2022-09-23T04:05:58.595Z,26.60
2022-09-23T04:11:02.458Z,12.00
2022-09-23T04:16:05.989Z,12.30
2022-09-23T04:21:09.141Z,12.30
2022-09-23T04:26:12.862Z,13.50
2022-09-23T04:31:16.140Z,11.50
2022-09-23T04:36:19.590Z,13.10
2022-09-23T04:41:22.495Z,12.80
2022-09-23T04:46:25.568Z,14.20
2022-09-23T04:51:29.026Z,21.40
2022-09-23T04:56:32.948Z,13.90
2022-09-23T05:01:36.672Z,28.20
2022-09-23T05:06:40.188Z,14.50
2022-09-23T05:11:44.029Z,17.20
2022-09-23T05:16:46.917Z,12.50
2022-09-23T05:21:49.822Z,13.50
2022-09-23T05:26:54.394Z,12.30
2022-09-23T05:31:57.336Z,15.60
2022-09-23T05:37:03.704Z,16.30
2022-09-23T05:42:07.116Z,13.20
2022-09-23T05:47:10.029Z,16.50
2022-09-23T05:52:13.002Z,14.60
2022-09-23T05:57:16.311Z,17.70
2022-09-23T06:02:19.239Z,23.20
2022-09-23T06:07:22.311Z,19.80
2022-09-23T06:12:25.311Z,22.90
2022-09-23T06:17:28.119Z,15.80
2022-09-23T06:22:31.105Z,15.80
2022-09-23T06:27:34.023Z,16.50
2022-09-23T06:32:37.031Z,11.70
2022-09-23T06:37:43.210Z,11.90
2022-09-23T06:42:49.033Z,11.80
2022-09-23T06:48:06.331Z,10.80
2022-09-23T06:53:09.347Z,7.90
2022-09-23T06:58:12.444Z,6.60
2022-09-23T07:03:15.341Z,7.00
2022-09-23T07:08:18.760Z,7.20
2022-09-23T07:13:21.831Z,8.00
2022-09-23T07:18:26.205Z,5.90
2022-09-23T07:23:29.210Z,8.40
2022-09-23T07:28:32.629Z,5.60
2022-09-23T07:33:42.931Z,6.20
2022-09-23T07:38:47.456Z,5.30
2022-09-23T07:43:55.677Z,5.50
2022-09-23T07:48:59.389Z,6.80
2022-09-23T07:54:02.410Z,6.10
2022-09-23T07:59:09.005Z,8.20
2022-09-23T08:04:14.049Z,3.80
2022-09-23T08:09:22.148Z,4.80
2022-09-23T08:14:25.391Z,4.60
2022-09-23T08:19:28.291Z,3.50
2022-09-23T08:24:32.421Z,5.50
2022-09-23T08:29:35.222Z,5.10
2022-09-23T08:34:38.024Z,5.30
2022-09-23T08:39:40.826Z,6.30
2022-09-23T08:44:49.575Z,4.20
2022-09-23T08:50:08.406Z,5.80
2022-09-23T08:55:15.955Z,5.10
2022-09-23T09:00:23.639Z,6.40
2022-09-23T09:05:28.625Z,4.40
2022-09-23T09:10:41.878Z,7.60
2022-09-23T09:15:56.384Z,3.90
2022-09-23T09:21:16.096Z,4.40
2022-09-23T09:26:28.458Z,6.40
2022-09-23T09:31:38.033Z,10.20
2022-09-23T09:37:06.731Z,10.60
2022-09-23T09:42:21.028Z,7.80
2022-09-23T09:47:46.718Z,5.40
2022-09-23T09:52:49.704Z,5.30
2022-09-23T09:58:02.013Z,5.20
2022-09-23T10:03:18.349Z,4.30
2022-09-23T10:08:37.321Z,4.50
2022-09-23T10:13:40.236Z,3.60
2022-09-23T10:18:46.199Z,4.00
2022-09-23T10:23:52.746Z,4.60
2022-09-23T10:28:55.818Z,4.10
2022-09-23T10:34:28.086Z,2.30
2022-09-23T10:39:49.942Z,2.60
2022-09-23T10:45:26.232Z,5.60
2022-09-23T10:50:46.238Z,7.80
2022-09-23T10:56:06.562Z,3.50
2022-09-23T11:06:35.612Z,2.90
2022-09-23T11:11:47.326Z,3.10
2022-09-23T11:17:02.242Z,1.90
2022-09-23T11:22:16.076Z,4.30
2022-09-23T11:27:27.786Z,2.60
2022-09-23T11:32:44.824Z,3.70
2022-09-23T11:37:52.847Z,2.60
2022-09-23T11:43:26.063Z,4.00
2022-09-23T11:48:42.281Z,4.10
2022-09-23T11:53:57.886Z,2.10
2022-09-23T11:59:06.660Z,2.50
2022-09-23T12:04:23.446Z,2.60
2022-09-23T12:15:19.647Z,2.90
2022-09-23T12:20:42.527Z,4.50
2022-09-23T12:25:57.306Z,2.60
2022-09-23T12:31:04.025Z,2.50
2022-09-23T12:36:12.352Z,4.30
2022-09-23T12:41:27.837Z,4.20
2022-09-23T12:46:30.741Z,4.00
2022-09-23T12:51:37.423Z,4.00
2022-09-23T12:56:40.228Z,4.30
2022-09-23T13:01:44.567Z,2.90
2022-09-23T13:07:09.563Z,4.10
2022-09-23T13:12:40.451Z,2.70
2022-09-23T13:17:43.350Z,6.20
2022-09-23T13:22:49.027Z,5.90
2022-09-23T13:27:55.508Z,5.30
2022-09-23T13:33:24.632Z,3.90
2022-09-23T13:38:32.253Z,4.00
2022-09-23T13:43:41.342Z,4.20
2022-09-23T13:48:46.863Z,8.40
2022-09-23T13:53:55.367Z,3.90
2022-09-23T13:59:26.372Z,2.70
2022-09-23T14:04:29.268Z,3.90
2022-09-23T14:09:35.447Z,5.90
2022-09-23T14:14:41.083Z,3.80
2022-09-23T14:19:44.512Z,4.90
2022-09-23T14:24:49.548Z,2.80
2022-09-23T14:29:54.040Z,3.90
2022-09-23T14:34:59.602Z,2.20
2022-09-23T14:40:04.149Z,2.00
2022-09-23T14:45:10.116Z,3.00
2022-09-23T14:50:36.997Z,3.10
2022-09-23T14:55:41.735Z,3.20
2022-09-23T15:00:55.918Z,3.40
2022-09-23T15:06:08.750Z,3.10
2022-09-23T15:11:12.359Z,2.90
2022-09-23T15:16:26.663Z,2.30
2022-09-23T15:21:42.350Z,2.80
2022-09-23T15:26:48.912Z,3.00
2022-09-23T15:31:52.075Z,5.30
2022-09-23T15:36:55.148Z,2.20
2022-09-23T15:41:58.870Z,2.70
2022-09-23T15:47:02.391Z,2.70
2022-09-23T15:52:07.981Z,5.30
2022-09-23T15:57:11.376Z,2.90
2022-09-23T16:02:22.667Z,7.80
2022-09-23T16:07:28.453Z,21.50
2022-09-23T16:12:31.449Z,9.60
2022-09-23T16:17:37.780Z,11.40
2022-09-23T16:22:40.740Z,4.70
2022-09-23T16:27:43.645Z,5.40
2022-09-23T16:32:46.548Z,4.20
2022-09-23T16:37:51.186Z,5.40
2022-09-23T16:42:56.040Z,12.30
2022-09-23T16:47:59.663Z,8.90
2022-09-23T16:53:02.570Z,18.60
2022-09-23T16:58:05.471Z,32.10
2022-09-23T17:03:29.881Z,33.10
2022-09-23T17:08:33.383Z,17.50
2022-09-23T17:13:41.226Z,22.50
2022-09-23T17:18:44.222Z,37.00
2022-09-23T17:23:47.143Z,27.30
2022-09-23T17:28:51.876Z,13.60
2022-09-23T17:33:55.294Z,19.80
2022-09-23T17:38:58.197Z,33.10
2022-09-23T17:44:01.328Z,39.90
2022-09-23T17:49:05.727Z,53.30
2022-09-23T17:54:09.165Z,26.90
2022-09-23T17:59:14.523Z,16.60
2022-09-23T18:04:17.637Z,8.20
2022-09-23T18:09:20.740Z,10.80
2022-09-23T18:14:24.276Z,14.80
2022-09-23T18:19:27.468Z,11.50
2022-09-23T18:24:33.611Z,10.00
2022-09-23T18:29:38.218Z,12.40
2022-09-23T18:34:41.305Z,10.70
2022-09-23T18:39:44.666Z,14.70
2022-09-23T18:44:50.089Z,13.60
2022-09-23T18:50:12.444Z,16.30
2022-09-23T18:55:15.658Z,23.00
2022-09-23T19:00:19.602Z,16.60
2022-09-23T19:05:22.587Z,20.60
2022-09-23T19:10:25.701Z,43.80
2022-09-23T19:15:28.813Z,50.00
2022-09-23T19:20:31.811Z,13.20
2022-09-23T19:25:36.357Z,11.40
2022-09-23T19:30:39.570Z,6.60
2022-09-23T19:35:48.731Z,9.00
2022-09-23T19:40:52.270Z,10.00
2022-09-23T19:45:55.857Z,11.90
2022-09-23T19:50:58.864Z,8.60
2022-09-23T19:56:05.058Z,11.90
2022-09-23T20:01:08.352Z,17.30
2022-09-23T20:06:11.773Z,18.50
2022-09-23T20:11:23.647Z,14.30
2022-09-23T20:16:33.717Z,12.30
2022-09-23T20:21:36.764Z,21.50
2022-09-23T20:26:58.510Z,23.90
2022-09-23T20:32:01.779Z,11.80
2022-09-23T20:37:06.230Z,14.20
2022-09-23T20:42:10.344Z,11.90
2022-09-23T20:47:14.959Z,16.40
2022-09-23T20:52:20.513Z,16.10
2022-09-23T20:57:23.408Z,12.40
2022-09-23T21:02:27.467Z,12.20
2022-09-23T21:07:32.291Z,11.10
2022-09-23T21:12:35.499Z,15.00
2022-09-23T21:17:38.426Z,16.10
2022-09-23T21:22:41.420Z,19.00
2022-09-23T21:27:45.235Z,23.30
2022-09-23T21:32:48.038Z,15.10
2022-09-23T21:37:50.838Z,14.80
2022-09-23T21:42:53.638Z,16.60
2022-09-23T21:47:56.542Z,15.00
2022-09-23T21:53:00.987Z,11.90
2022-09-23T21:58:04.707Z,14.10
2022-09-23T22:03:07.715Z,16.40
2022-09-23T22:08:10.823Z,10.00
2022-09-23T22:13:13.623Z,14.00
2022-09-23T22:18:19.495Z,23.30
2022-09-23T22:23:22.399Z,22.40
2022-09-23T22:28:43.735Z,21.40
2022-09-23T22:33:50.558Z,19.80
2022-09-23T22:38:59.184Z,18.40
2022-09-23T22:44:03.816Z,20.80
2022-09-23T22:49:09.389Z,22.90
2022-09-23T22:54:12.502Z,18.20
2022-09-23T22:59:15.404Z,15.60
2022-09-23T23:04:18.264Z,16.30
2022-09-23T23:09:21.098Z,14.90
2022-09-23T23:14:24.575Z,18.80
2022-09-23T23:19:27.521Z,13.70
2022-09-23T23:24:30.322Z,13.20
2022-09-23T23:29:33.226Z,11.10
2022-09-23T23:34:36.014Z,11.20
2022-09-23T23:39:38.809Z,11.00
2022-09-23T23:44:41.732Z,11.90
2022-09-23T23:49:44.582Z,12.50
2022-09-23T23:54:47.544Z,9.20
2022-09-23T23:59:50.446Z,7.30
